Time,TemperatureF,DewpointF,PressureIn,WindDirection,WindDirectionDegrees,WindSpeedMPH,WindSpeedGustMPH,Humidity,HourlyPrecipIn,Conditions,Clouds,dailyrainin,SoftwareType,DateUTC
2013-09-19 00:00:00,49.0,45.5,30.19,South,181,0.0,0.0,88,0.00,,SCT,0.00,VWS V14.00,2013-09-19 04:00:00,
2013-09-19 00:03:00,48.8,45.9,30.19,South,179,0.0,2.4,90,0.00,,SKC,0.00,VWS V14.00,2013-09-19 04:03:00,
2013-09-19 00:08:00,48.2,45.5,30.19,South,179,0.0,2.4,90,0.00,,SKC,0.00,VWS V14.00,2013-09-19 04:08:00,
2013-09-19 00:13:00,48.0,45.4,30.18,South,179,0.0,2.4,91,0.00,,SKC,0.00,VWS V14.00,2013-09-19 04:13:00,
2013-09-19 00:18:00,48.0,45.5,30.18,South,179,0.0,2.4,91,0.00,,SKC,0.00,VWS V14.00,2013-09-19 04:18:00,
2013-09-19 00:23:00,48.1,45.6,30.18,South,179,0.0,2.4,91,0.00,,SKC,0.00,VWS V14.00,2013-09-19 04:23:00,
2013-09-19 00:28:00,48.0,45.5,30.18,South,179,0.0,2.4,91,0.00,,SKC,0.00,VWS V14.00,2013-09-19 04:28:00,
2013-09-19 00:30:00,48.1,45.0,30.19,South,181,0.0,0.0,89,0.00,,SCT,0.00,VWS V14.00,2013-09-19 04:30:00,
2013-09-19 00:33:00,47.8,45.3,30.18,South,179,0.0,0.0,91,0.00,,SKC,0.00,VWS V14.00,2013-09-19 04:33:00,
2013-09-19 00:38:00,47.5,45.0,30.18,South,179,0.0,0.0,91,0.00,,SKC,0.00,VWS V14.00,2013-09-19 04:38:00,
2013-09-19 00:43:00,47.2,44.8,30.18,South,179,0.0,0.0,91,0.00,,SKC,0.00,VWS V14.00,2013-09-19 04:43:00,
2013-09-19 00:48:00,47.1,44.7,30.18,South,179,0.0,0.0,91,0.00,,SKC,0.00,VWS V14.00,2013-09-19 04:48:00,
2013-09-19 00:53:00,47.0,44.9,30.19,South,179,0.0,0.0,92,0.00,,SKC,0.00,VWS V14.00,2013-09-19 04:53:00,
2013-09-19 00:58:00,46.9,44.8,30.19,South,179,0.0,0.0,92,0.00,,SKC,0.00,VWS V14.00,2013-09-19 04:58:00,
2013-09-19 01:03:00,47.2,45.3,30.19,South,179,0.0,0.0,93,0.00,,SKC,0.00,VWS V14.00,2013-09-19 05:03:00,
2013-09-19 01:08:00,47.1,45.1,30.19,South,179,0.0,0.0,93,0.00,,SKC,0.00,VWS V14.00,2013-09-19 05:08:00,
2013-09-19 01:13:00,46.9,44.8,30.19,South,179,0.0,0.0,92,0.00,,SKC,0.00,VWS V14.00,2013-09-19 05:13:00,
2013-09-19 01:18:00,46.8,44.9,30.19,South,179,0.0,0.0,93,0.00,,SKC,0.00,VWS V14.00,2013-09-19 05:18:00,
2013-09-19 01:23:00,46.7,44.7,30.19,South,179,0.0,0.0,93,0.00,,SKC,0.00,VWS V14.00,2013-09-19 05:23:00,
2013-09-19 01:28:00,46.5,44.5,30.19,South,179,0.0,0.0,93,0.00,,SKC,0.00,VWS V14.00,2013-09-19 05:28:00,
2013-09-19 01:30:00,47.9,45.4,30.18,South,179,0.0,2.4,91,0.00,,SCT,0.00,VWS V14.00,2013-09-19 05:30:00,
2013-09-19 01:33:00,46.2,44.2,30.19,South,179,0.0,0.0,93,0.00,,SKC,0.00,VWS V14.00,2013-09-19 05:33:00,
2013-09-19 01:38:00,45.9,43.9,30.19,South,179,0.0,0.0,93,0.00,,SKC,0.00,VWS V14.00,2013-09-19 05:38:00,
2013-09-19 01:43:00,45.8,43.8,30.19,South,179,0.0,0.0,93,0.00,,SKC,0.00,VWS V14.00,2013-09-19 05:43:00,
2013-09-19 01:48:00,45.6,43.7,30.19,South,179,0.0,0.0,93,0.00,,SKC,0.00,VWS V14.00,2013-09-19 05:48:00,
2013-09-19 01:53:00,45.3,43.4,30.19,South,179,0.0,0.0,93,0.00,,SKC,0.00,VWS V14.00,2013-09-19 05:53:00,
2013-09-19 01:58:00,45.2,43.3,30.19,South,179,0.0,0.0,93,0.00,,SKC,0.00,VWS V14.00,2013-09-19 05:58:00,
2013-09-19 02:00:00,47.0,45.1,30.19,South,179,0.0,0.0,93,0.00,,SCT,0.00,VWS V14.00,2013-09-19 06:00:00,
2013-09-19 02:03:00,45.0,43.1,30.19,South,179,0.0,0.0,93,0.00,,SKC,0.00,VWS V14.00,2013-09-19 06:03:00,
2013-09-19 02:08:00,44.9,43.0,30.19,South,179,0.0,0.0,93,0.00,,SKC,0.00,VWS V14.00,2013-09-19 06:08:00,
2013-09-19 02:13:00,44.7,42.9,30.19,South,179,0.0,0.0,93,0.00,,SKC,0.00,VWS V14.00,2013-09-19 06:13:00,
2013-09-19 02:18:00,44.8,43.0,30.18,South,179,0.0,0.0,93,0.00,,SKC,0.00,VWS V14.00,2013-09-19 06:18:00,
2013-09-19 02:23:00,44.8,43.0,30.18,South,179,0.0,0.0,93,0.00,,SKC,0.00,VWS V14.00,2013-09-19 06:23:00,
2013-09-19 02:28:00,44.7,42.9,30.18,South,179,0.0,0.0,93,0.00,,SKC,0.00,VWS V14.00,2013-09-19 06:28:00,
2013-09-19 02:30:00,46.4,44.4,30.19,South,179,0.0,0.0,93,0.00,,SCT,0.00,VWS V14.00,2013-09-19 06:30:00,
2013-09-19 02:33:00,44.6,42.8,30.18,South,179,0.0,0.0,93,0.00,,SKC,0.00,VWS V14.00,2013-09-19 06:33:00,
2013-09-19 02:38:00,44.5,42.8,30.18,South,179,0.0,0.0,94,0.00,,SKC,0.00,VWS V14.00,2013-09-19 06:38:00,
2013-09-19 02:43:00,44.4,42.7,30.18,South,179,0.0,0.0,94,0.00,,SKC,0.00,VWS V14.00,2013-09-19 06:43:00,
2013-09-19 02:48:00,44.6,42.9,30.18,South,179,0.0,0.0,94,0.00,,SKC,0.00,VWS V14.00,2013-09-19 06:48:00,
2013-09-19 02:53:00,44.6,42.9,30.18,South,179,0.0,0.0,94,0.00,,SKC,0.00,VWS V14.00,2013-09-19 06:53:00,
2013-09-19 02:58:00,44.6,42.9,30.18,South,179,0.0,0.0,94,0.00,,SKC,0.00,VWS V14.00,2013-09-19 06:58:00,
2013-09-19 03:00:00,45.1,43.2,30.19,South,179,0.0,0.0,93,0.00,,SCT,0.00,VWS V14.00,2013-09-19 07:00:00,
2013-09-19 03:03:00,44.7,43.1,30.18,South,179,0.0,0.0,94,0.00,,SKC,0.00,VWS V14.00,2013-09-19 07:03:00,
2013-09-19 03:08:00,44.7,43.1,30.18,South,179,0.0,0.0,94,0.00,,SKC,0.00,VWS V14.00,2013-09-19 07:08:00,
2013-09-19 03:13:00,44.5,42.9,30.18,South,179,0.0,0.0,94,0.00,,SKC,0.00,VWS V14.00,2013-09-19 07:13:00,
2013-09-19 03:18:00,44.6,43.0,30.18,South,179,0.0,0.0,94,0.00,,SKC,0.00,VWS V14.00,2013-09-19 07:18:00,
2013-09-19 03:23:00,44.4,42.8,30.18,South,179,0.0,0.0,94,0.00,,SKC,0.00,VWS V14.00,2013-09-19 07:23:00,
2013-09-19 03:28:00,44.2,42.6,30.18,South,179,0.0,0.0,94,0.00,,SKC,0.00,VWS V14.00,2013-09-19 07:28:00,
2013-09-19 03:30:00,44.7,42.9,30.18,South,179,0.0,0.0,93,0.00,,SCT,0.00,VWS V14.00,2013-09-19 07:30:00,
2013-09-19 03:33:00,44.2,42.7,30.18,South,179,0.0,0.0,94,0.00,,SKC,0.00,VWS V14.00,2013-09-19 07:33:00,
2013-09-19 03:38:00,44.2,42.7,30.18,South,179,0.0,0.0,94,0.00,,SKC,0.00,VWS V14.00,2013-09-19 07:38:00,
2013-09-19 03:43:00,44.2,42.8,30.18,South,179,0.0,0.0,95,0.00,,SKC,0.00,VWS V14.00,2013-09-19 07:43:00,
2013-09-19 03:48:00,44.4,43.1,30.18,South,179,0.0,0.0,95,0.00,,SKC,0.00,VWS V14.00,2013-09-19 07:48:00,
2013-09-19 03:53:00,44.7,43.4,30.18,South,179,0.0,0.0,95,0.00,,SKC,0.00,VWS V14.00,2013-09-19 07:53:00,
2013-09-19 03:58:00,44.8,43.5,30.18,South,179,0.0,0.0,95,0.00,,SKC,0.00,VWS V14.00,2013-09-19 07:58:00,
2013-09-19 04:00:00,44.5,42.8,30.18,South,179,0.0,0.0,94,0.00,,SCT,0.00,VWS V14.00,2013-09-19 08:00:00,
2013-09-19 04:03:00,44.6,43.3,30.18,South,179,0.0,0.0,95,0.00,,SKC,0.00,VWS V14.00,2013-09-19 08:03:00,
2013-09-19 04:08:00,44.5,43.2,30.18,South,179,0.0,0.0,95,0.00,,SKC,0.00,VWS V14.00,2013-09-19 08:08:00,
2013-09-19 04:13:00,44.2,42.9,30.18,South,179,0.0,0.0,95,0.00,,SKC,0.00,VWS V14.00,2013-09-19 08:13:00,
2013-09-19 04:18:00,44.1,42.8,30.18,South,179,0.0,0.0,95,0.00,,SKC,0.00,VWS V14.00,2013-09-19 08:18:00,
2013-09-19 04:23:00,44.0,42.7,30.18,South,179,0.0,0.0,95,0.00,,SKC,0.00,VWS V14.00,2013-09-19 08:23:00,
2013-09-19 04:28:00,43.9,42.6,30.18,South,179,0.0,0.0,95,0.00,,SKC,0.00,VWS V14.00,2013-09-19 08:28:00,
2013-09-19 04:30:00,44.3,42.8,30.18,South,179,0.0,0.0,94,0.00,,SCT,0.00,VWS V14.00,2013-09-19 08:30:00,
2013-09-19 04:33:00,43.7,42.5,30.18,South,179,0.0,0.0,95,0.00,,SKC,0.00,VWS V14.00,2013-09-19 08:33:00,
2013-09-19 04:38:00,44.1,42.9,30.18,South,179,0.0,0.0,95,0.00,,SKC,0.00,VWS V14.00,2013-09-19 08:38:00,
2013-09-19 04:44:00,44.1,42.9,30.18,South,179,0.0,0.0,95,0.00,,SKC,0.00,VWS V14.00,2013-09-19 08:44:00,
2013-09-19 04:49:00,44.2,43.0,30.18,South,179,0.0,0.0,95,0.00,,SKC,0.00,VWS V14.00,2013-09-19 08:49:00,
2013-09-19 04:54:00,44.2,43.0,30.18,South,179,0.0,0.0,95,0.00,,SKC,0.00,VWS V14.00,2013-09-19 08:54:00,
2013-09-19 04:59:00,44.2,42.9,30.18,South,179,0.0,0.0,95,0.00,,SKC,0.00,VWS V14.00,2013-09-19 08:59:00,
2013-09-19 05:00:00,44.6,43.3,30.18,South,179,0.0,0.0,95,0.00,,SCT,0.00,VWS V14.00,2013-09-19 09:00:00,
2013-09-19 05:04:00,43.9,42.7,30.18,South,179,0.0,0.0,95,0.00,,SKC,0.00,VWS V14.00,2013-09-19 09:04:00,
2013-09-19 05:09:00,43.8,42.5,30.18,South,179,0.0,0.0,95,0.00,,SKC,0.00,VWS V14.00,2013-09-19 09:09:00,
2013-09-19 05:14:00,43.5,42.3,30.19,South,179,0.0,0.0,95,0.00,,SKC,0.00,VWS V14.00,2013-09-19 09:14:00,
2013-09-19 05:19:00,43.4,42.2,30.19,South,179,0.0,0.0,95,0.00,,SKC,0.00,VWS V14.00,2013-09-19 09:19:00,
2013-09-19 05:24:00,43.2,42.0,30.19,South,179,0.0,0.0,95,0.00,,SKC,0.00,VWS V14.00,2013-09-19 09:24:00,
2013-09-19 05:29:00,43.0,41.8,30.19,South,179,0.0,0.0,95,0.00,,SKC,0.00,VWS V14.00,2013-09-19 09:29:00,
2013-09-19 05:30:00,43.8,42.5,30.18,South,179,0.0,0.0,95,0.00,,SCT,0.00,VWS V14.00,2013-09-19 09:30:00,
2013-09-19 05:34:00,42.9,41.7,30.19,South,179,0.0,0.0,96,0.00,,SKC,0.00,VWS V14.00,2013-09-19 09:34:00,
2013-09-19 05:39:00,42.7,41.5,30.19,South,179,0.0,0.0,96,0.00,,SKC,0.00,VWS V14.00,2013-09-19 09:39:00,
2013-09-19 05:44:00,42.6,41.4,30.19,South,179,0.0,0.0,96,0.00,,SKC,0.00,VWS V14.00,2013-09-19 09:44:00,
2013-09-19 05:49:00,42.3,41.1,30.19,South,179,0.0,0.0,96,0.00,,SKC,0.00,VWS V14.00,2013-09-19 09:49:00,
2013-09-19 05:54:00,42.3,41.1,30.19,South,179,0.0,0.0,96,0.00,,SKC,0.00,VWS V14.00,2013-09-19 09:54:00,
2013-09-19 05:59:00,42.3,41.1,30.19,South,179,0.0,0.0,96,0.00,,SKC,0.00,VWS V14.00,2013-09-19 09:59:00,
2013-09-19 06:00:00,44.1,42.8,30.18,South,179,0.0,0.0,95,0.00,,SCT,0.00,VWS V14.00,2013-09-19 10:00:00,
2013-09-19 06:04:00,42.3,41.1,30.20,South,179,0.0,0.0,96,0.00,,SKC,0.00,VWS V14.00,2013-09-19 10:04:00,
2013-09-19 06:09:00,42.3,41.1,30.19,South,179,0.0,0.0,96,0.00,,SKC,0.00,VWS V14.00,2013-09-19 10:09:00,
2013-09-19 06:14:00,42.5,41.3,30.19,South,179,0.0,0.0,96,0.00,,SKC,0.00,VWS V14.00,2013-09-19 10:14:00,
2013-09-19 06:19:00,42.2,41.0,30.19,South,179,0.0,0.0,96,0.00,,SKC,0.00,VWS V14.00,2013-09-19 10:19:00,
2013-09-19 06:24:00,42.1,40.9,30.19,South,179,0.0,0.0,96,0.00,,SKC,0.00,VWS V14.00,2013-09-19 10:24:00,
2013-09-19 06:29:00,41.9,40.7,30.19,South,179,0.0,0.0,96,0.00,,SKC,0.00,VWS V14.00,2013-09-19 10:29:00,
2013-09-19 06:30:00,43.0,41.8,30.19,South,179,0.0,0.0,95,0.00,,SCT,0.00,VWS V14.00,2013-09-19 10:30:00,
2013-09-19 06:34:00,41.9,40.7,30.19,South,179,0.0,0.0,96,0.00,,SKC,0.00,VWS V14.00,2013-09-19 10:34:00,
2013-09-19 06:39:00,41.7,40.5,30.19,South,179,0.0,0.0,96,0.00,,SKC,0.00,VWS V14.00,2013-09-19 10:39:00,
2013-09-19 06:44:00,41.7,40.6,30.19,South,179,0.0,0.0,96,0.00,,SKC,0.00,VWS V14.00,2013-09-19 10:44:00,
2013-09-19 06:49:00,42.0,40.9,30.20,South,179,0.0,0.0,96,0.00,,SKC,0.00,VWS V14.00,2013-09-19 10:49:00,
2013-09-19 06:54:00,42.2,41.1,30.20,South,179,0.0,0.0,96,0.00,,SKC,0.00,VWS V14.00,2013-09-19 10:54:00,
2013-09-19 06:59:00,42.0,40.9,30.20,South,179,0.0,0.0,96,0.00,,SKC,0.00,VWS V14.00,2013-09-19 10:59:00,
2013-09-19 07:00:00,42.3,41.1,30.19,South,179,0.0,0.0,96,0.00,,SCT,0.00,VWS V14.00,2013-09-19 11:00:00,
2013-09-19 07:04:00,41.9,40.8,30.20,South,179,0.0,0.0,96,0.00,,SKC,0.00,VWS V14.00,2013-09-19 11:04:00,
2013-09-19 07:09:00,42.0,40.9,30.20,South,179,0.0,0.0,96,0.00,,SKC,0.00,VWS V14.00,2013-09-19 11:09:00,
2013-09-19 07:14:00,42.1,41.0,30.20,South,179,0.0,0.0,96,0.00,,SKC,0.00,VWS V14.00,2013-09-19 11:14:00,
2013-09-19 07:19:00,41.9,40.8,30.20,South,179,0.0,0.0,96,0.00,,SKC,0.00,VWS V14.00,2013-09-19 11:19:00,
2013-09-19 07:24:00,42.0,40.9,30.20,South,179,0.0,0.0,96,0.00,,SKC,0.00,VWS V14.00,2013-09-19 11:24:00,
2013-09-19 07:29:00,42.2,41.1,30.20,South,179,0.0,0.0,96,0.00,,SKC,0.00,VWS V14.00,2013-09-19 11:29:00,
2013-09-19 07:30:00,41.9,40.7,30.19,South,179,0.0,0.0,96,0.00,,SCT,0.00,VWS V14.00,2013-09-19 11:30:00,
2013-09-19 07:34:00,42.5,41.4,30.20,South,179,0.0,0.0,96,0.00,,SKC,0.00,VWS V14.00,2013-09-19 11:34:00,
2013-09-19 07:39:00,43.0,41.9,30.20,South,179,0.0,0.0,96,0.00,,SKC,0.00,VWS V14.00,2013-09-19 11:39:00,
2013-09-19 07:44:00,43.4,42.3,30.20,South,179,0.0,0.0,96,0.00,,SKC,0.00,VWS V14.00,2013-09-19 11:44:00,
2013-09-19 07:49:00,43.9,42.8,30.20,South,179,0.0,0.0,96,0.00,,SKC,0.00,VWS V14.00,2013-09-19 11:49:00,
2013-09-19 07:54:00,44.6,43.5,30.20,South,179,0.0,0.0,96,0.00,,SKC,0.00,VWS V14.00,2013-09-19 11:54:00,
2013-09-19 07:59:00,45.4,44.3,30.20,South,179,0.0,0.0,96,0.00,,SKC,0.00,VWS V14.00,2013-09-19 11:59:00,
2013-09-19 08:00:00,42.0,40.9,30.20,South,179,0.0,0.0,96,0.00,,SCT,0.00,VWS V14.00,2013-09-19 12:00:00,
2013-09-19 08:04:00,46.6,45.5,30.19,South,179,0.0,0.0,96,0.00,,SKC,0.00,VWS V14.00,2013-09-19 12:04:00,
2013-09-19 08:09:00,47.5,46.4,30.19,South,179,0.0,0.0,96,0.00,,SKC,0.00,VWS V14.00,2013-09-19 12:09:00,
2013-09-19 08:14:00,48.4,47.3,30.19,South,179,0.0,0.0,96,0.00,,SKC,0.00,VWS V14.00,2013-09-19 12:14:00,
2013-09-19 08:19:00,49.1,48.0,30.20,South,179,0.0,0.0,96,0.00,,SKC,0.00,VWS V14.00,2013-09-19 12:19:00,
2013-09-19 08:24:00,49.9,48.8,30.20,South,179,0.0,0.0,96,0.00,,SKC,0.00,VWS V14.00,2013-09-19 12:24:00,
2013-09-19 08:29:00,50.4,49.2,30.20,South,179,0.0,0.0,96,0.00,,SKC,0.00,VWS V14.00,2013-09-19 12:29:00,
2013-09-19 08:30:00,42.2,41.1,30.20,South,179,0.0,0.0,96,0.00,,SCT,0.00,VWS V14.00,2013-09-19 12:30:00,
2013-09-19 08:34:00,50.9,49.7,30.20,South,179,0.0,0.0,96,0.00,,SKC,0.00,VWS V14.00,2013-09-19 12:34:00,
2013-09-19 08:39:00,51.3,50.0,30.20,South,179,0.0,0.0,95,0.00,,SKC,0.00,VWS V14.00,2013-09-19 12:39:00,
2013-09-19 08:44:00,51.9,50.6,30.20,South,191,2.1,2.1,95,0.00,,SKC,0.00,VWS V14.00,2013-09-19 12:44:00,
2013-09-19 08:49:00,52.7,51.3,30.20,SW,221,1.2,3.2,95,0.00,,SKC,0.00,VWS V14.00,2013-09-19 12:49:00,
2013-09-19 08:54:00,53.6,51.9,30.19,SSE,156,2.9,3.2,94,0.00,,SKC,0.00,VWS V14.00,2013-09-19 12:54:00,
2013-09-19 08:59:00,54.7,52.5,30.19,South,176,0.6,1.1,92,0.00,,SKC,0.00,VWS V14.00,2013-09-19 12:59:00,
2013-09-19 09:00:00,45.4,44.3,30.20,South,179,0.0,0.0,96,0.00,,SCT,0.00,VWS V14.00,2013-09-19 13:00:00,
2013-09-19 09:04:00,55.8,53.0,30.19,WSW,245,1.2,2.9,90,0.00,,SKC,0.00,VWS V14.00,2013-09-19 13:04:00,
2013-09-19 09:09:00,56.7,53.2,30.19,WSW,253,1.9,2.9,88,0.00,,SKC,0.00,VWS V14.00,2013-09-19 13:09:00,
2013-09-19 09:14:00,57.4,52.9,30.19,WSW,256,2.0,2.9,85,0.00,,SKC,0.00,VWS V14.00,2013-09-19 13:14:00,
2013-09-19 09:19:00,58.0,52.3,30.20,WSW,239,1.6,4.0,81,0.00,,SKC,0.00,VWS V14.00,2013-09-19 13:19:00,
2013-09-19 09:24:00,58.7,52.1,30.20,West,262,2.0,4.0,79,0.00,,SKC,0.00,VWS V14.00,2013-09-19 13:24:00,
2013-09-19 09:29:00,59.3,51.8,30.20,West,276,1.6,3.4,76,0.00,,SKC,0.00,VWS V14.00,2013-09-19 13:29:00,
2013-09-19 09:30:00,50.5,49.3,30.20,South,179,0.0,0.0,96,0.00,,SCT,0.00,VWS V14.00,2013-09-19 13:30:00,
2013-09-19 09:34:00,59.6,52.2,30.20,SW,232,0.0,3.4,76,0.00,,SKC,0.00,VWS V14.00,2013-09-19 13:34:00,
2013-09-19 09:39:00,60.1,52.5,30.19,SW,219,1.2,4.2,76,0.00,,SKC,0.00,VWS V14.00,2013-09-19 13:39:00,
2013-09-19 09:44:00,60.4,51.7,30.19,WSW,249,1.6,5.5,73,0.00,,SKC,0.00,VWS V14.00,2013-09-19 13:44:00,
2013-09-19 09:49:00,61.0,52.5,30.20,SW,224,1.1,5.5,74,0.00,,SKC,0.00,VWS V14.00,2013-09-19 13:49:00,
2013-09-19 09:54:00,61.4,51.4,30.20,WSW,253,2.4,5.5,70,0.00,,SKC,0.00,VWS V14.00,2013-09-19 13:54:00,
2013-09-19 09:59:00,61.9,51.5,30.20,WSW,238,2.8,5.6,69,0.00,,SKC,0.00,VWS V14.00,2013-09-19 13:59:00,
2013-09-19 10:00:00,54.6,52.4,30.19,SSW,194,0.8,3.4,92,0.00,,SCT,0.00,VWS V14.00,2013-09-19 14:00:00,
2013-09-19 10:04:00,62.4,52.1,30.20,WSW,249,4.3,5.6,69,0.00,,SKC,0.00,VWS V14.00,2013-09-19 14:04:00,
2013-09-19 10:10:00,62.7,52.6,30.20,WSW,255,2.7,7.0,70,0.00,,SKC,0.00,VWS V14.00,2013-09-19 14:10:00,
2013-09-19 10:15:00,62.7,51.7,30.20,SW,222,3.7,7.0,67,0.00,,SKC,0.00,VWS V14.00,2013-09-19 14:15:00,
2013-09-19 10:20:00,63.0,52.8,30.20,WSW,240,1.1,7.0,69,0.00,,SKC,0.00,VWS V14.00,2013-09-19 14:20:00,
2013-09-19 10:25:00,63.2,52.0,30.20,SSW,204,3.5,7.0,67,0.00,,SKC,0.00,VWS V14.00,2013-09-19 14:25:00,
2013-09-19 10:30:00,63.5,51.2,30.20,WSW,243,3.3,5.2,64,0.00,,SKC,0.00,VWS V14.00,2013-09-19 14:30:00,
2013-09-19 10:35:00,63.9,51.4,30.20,WSW,256,4.2,6.2,64,0.00,,SKC,0.00,VWS V14.00,2013-09-19 14:35:00,
2013-09-19 10:40:00,63.9,51.9,30.19,West,267,2.2,6.2,65,0.00,,SKC,0.00,VWS V14.00,2013-09-19 14:40:00,
2013-09-19 10:45:00,64.1,51.7,30.19,West,269,3.3,6.2,64,0.00,,SKC,0.00,VWS V14.00,2013-09-19 14:45:00,
2013-09-19 10:50:00,64.6,52.5,30.19,South,173,3.8,6.2,65,0.00,,SKC,0.00,VWS V14.00,2013-09-19 14:50:00,
2013-09-19 10:55:00,64.9,52.8,30.19,WSW,256,2.9,6.2,65,0.00,,SKC,0.00,VWS V14.00,2013-09-19 14:55:00,
2013-09-19 11:00:00,65.2,53.0,30.19,SW,231,2.6,3.5,65,0.00,,SKC,0.00,VWS V14.00,2013-09-19 15:00:00,
2013-09-19 11:05:00,65.2,53.0,30.19,West,273,1.2,3.9,65,0.00,,SKC,0.00,VWS V14.00,2013-09-19 15:05:00,
2013-09-19 11:10:00,65.8,54.0,30.19,South,186,4.0,4.0,66,0.00,,SKC,0.00,VWS V14.00,2013-09-19 15:10:00,
2013-09-19 11:15:00,66.3,53.8,30.19,West,277,1.5,7.1,64,0.00,,SKC,0.00,VWS V14.00,2013-09-19 15:15:00,
2013-09-19 11:20:00,66.4,54.1,30.18,West,271,2.5,7.1,65,0.00,,SKC,0.00,VWS V14.00,2013-09-19 15:20:00,
2013-09-19 11:25:00,66.7,53.8,30.18,SSE,160,0.0,7.1,63,0.00,,SKC,0.00,VWS V14.00,2013-09-19 15:25:00,
2013-09-19 11:30:00,67.0,53.9,30.18,West,274,3.6,4.0,63,0.00,,SKC,0.00,VWS V14.00,2013-09-19 15:30:00,
2013-09-19 11:35:00,66.9,53.7,30.18,West,277,3.1,4.7,62,0.00,,SKC,0.00,VWS V14.00,2013-09-19 15:35:00,
2013-09-19 11:40:00,67.3,54.3,30.18,SSE,158,2.4,4.7,63,0.00,,SKC,0.00,VWS V14.00,2013-09-19 15:40:00,
2013-09-19 11:45:00,67.8,54.1,30.18,WSW,248,1.4,8.2,62,0.00,,SKC,0.00,VWS V14.00,2013-09-19 15:45:00,
2013-09-19 11:50:00,68.0,54.2,30.18,SW,229,1.3,8.2,61,0.00,,SKC,0.00,VWS V14.00,2013-09-19 15:50:00,
2013-09-19 11:55:00,68.0,53.7,30.18,WSW,252,2.3,8.2,60,0.00,,SKC,0.00,VWS V14.00,2013-09-19 15:55:00,
2013-09-19 12:00:00,67.8,53.2,30.18,WNW,302,2.7,4.7,59,0.00,,SKC,0.00,VWS V14.00,2013-09-19 16:00:00,
2013-09-19 12:05:00,68.0,54.2,30.18,SSW,204,2.7,5.7,61,0.00,,SKC,0.00,VWS V14.00,2013-09-19 16:05:00,
2013-09-19 12:15:00,68.9,53.5,30.17,SSW,204,2.0,5.7,58,0.00,,SKC,0.00,VWS V14.00,2013-09-19 16:15:00,
2013-09-19 12:20:00,69.2,53.6,30.17,West,276,4.7,5.7,58,0.00,,SKC,0.00,VWS V14.00,2013-09-19 16:20:00,
2013-09-19 12:25:00,69.4,54.4,30.17,WNW,284,4.0,5.7,59,0.00,,SKC,0.00,VWS V14.00,2013-09-19 16:25:00,
2013-09-19 12:30:00,69.8,54.5,30.16,SW,225,1.3,1.7,58,0.00,,SKC,0.00,VWS V14.00,2013-09-19 16:30:00,
2013-09-19 12:35:00,70.1,53.6,30.16,South,177,0.0,4.3,56,0.00,,SKC,0.00,VWS V14.00,2013-09-19 16:35:00,
2013-09-19 12:40:00,70.3,54.4,30.16,West,278,1.4,4.7,57,0.00,,SKC,0.00,VWS V14.00,2013-09-19 16:40:00,
2013-09-19 12:45:00,70.3,54.4,30.16,West,263,1.2,4.7,57,0.00,,SKC,0.00,VWS V14.00,2013-09-19 16:45:00,
2013-09-19 12:50:00,70.5,53.9,30.16,WSW,246,3.0,5.8,56,0.00,,SKC,0.00,VWS V14.00,2013-09-19 16:50:00,
2013-09-19 12:55:00,70.8,53.5,30.16,West,276,4.7,6.9,54,0.00,,SKC,0.00,VWS V14.00,2013-09-19 16:55:00,
2013-09-19 13:00:00,70.7,53.3,30.16,SW,224,1.0,2.7,54,0.00,,SKC,0.00,VWS V14.00,2013-09-19 17:00:00,
2013-09-19 13:05:00,71.1,53.8,30.15,WNW,287,3.5,5.7,54,0.00,,SKC,0.00,VWS V14.00,2013-09-19 17:05:00,
2013-09-19 13:10:00,71.3,53.9,30.15,WSW,252,1.3,5.7,54,0.00,,SKC,0.00,VWS V14.00,2013-09-19 17:10:00,
2013-09-19 13:15:00,71.5,53.1,30.15,South,191,3.1,6.6,52,0.00,,SKC,0.00,VWS V14.00,2013-09-19 17:15:00,
2013-09-19 13:20:00,71.5,53.1,30.15,WNW,301,3.5,7.0,52,0.00,,SKC,0.00,VWS V14.00,2013-09-19 17:20:00,
2013-09-19 13:25:00,71.5,52.8,30.15,West,274,3.4,7.0,52,0.00,,SKC,0.00,VWS V14.00,2013-09-19 17:25:00,
2013-09-19 13:30:00,71.5,54.2,30.15,SW,229,3.2,3.6,54,0.00,,SKC,0.00,VWS V14.00,2013-09-19 17:30:00,
2013-09-19 13:35:00,71.9,53.5,30.15,South,179,0.7,5.4,52,0.00,,SKC,0.00,VWS V14.00,2013-09-19 17:35:00,
2013-09-19 13:40:00,71.8,53.5,30.14,West,281,4.0,6.3,52,0.00,,SKC,0.00,VWS V14.00,2013-09-19 17:40:00,
2013-09-19 13:45:00,71.9,53.5,30.14,WNW,287,3.9,6.3,52,0.00,,SKC,0.00,VWS V14.00,2013-09-19 17:45:00,
2013-09-19 13:50:00,71.8,52.6,30.13,West,269,3.8,7.6,51,0.00,,SKC,0.00,VWS V14.00,2013-09-19 17:50:00,
2013-09-19 13:55:00,72.2,53.5,30.13,WNW,290,4.7,7.6,52,0.00,,SKC,0.00,VWS V14.00,2013-09-19 17:55:00,
2013-09-19 14:00:00,72.5,52.9,30.13,West,271,4.7,4.7,50,0.00,,SKC,0.00,VWS V14.00,2013-09-19 18:00:00,
2013-09-19 14:05:00,72.5,52.1,30.13,SSW,195,6.2,7.0,49,0.00,,SKC,0.00,VWS V14.00,2013-09-19 18:05:00,
2013-09-19 14:10:00,72.6,51.0,30.13,NW,307,4.5,8.5,46,0.00,,SKC,0.00,VWS V14.00,2013-09-19 18:10:00,
2013-09-19 14:15:00,72.5,51.4,30.13,SW,232,2.9,8.5,48,0.00,,SKC,0.00,VWS V14.00,2013-09-19 18:15:00,
2013-09-19 14:20:00,72.9,51.0,30.12,West,274,4.7,8.5,46,0.00,,SKC,0.00,VWS V14.00,2013-09-19 18:20:00,
2013-09-19 14:25:00,73.0,50.8,30.12,West,260,3.7,8.5,46,0.00,,SKC,0.00,VWS V14.00,2013-09-19 18:25:00,
2013-09-19 14:30:00,73.0,50.7,30.12,West,270,7.4,7.4,45,0.00,,SKC,0.00,VWS V14.00,2013-09-19 18:30:00,
2013-09-19 14:35:00,72.9,50.5,30.12,West,259,2.8,8.1,45,0.00,,SKC,0.00,VWS V14.00,2013-09-19 18:35:00,
2013-09-19 14:40:00,72.9,50.3,30.12,SW,219,6.3,8.1,45,0.00,,SKC,0.00,VWS V14.00,2013-09-19 18:40:00,
2013-09-19 14:45:00,72.9,50.0,30.11,WSW,256,2.4,8.1,44,0.00,,SKC,0.00,VWS V14.00,2013-09-19 18:45:00,
2013-09-19 14:50:00,73.2,50.1,30.11,WNW,302,5.7,8.1,44,0.00,,SKC,0.00,VWS V14.00,2013-09-19 18:50:00,
2013-09-19 14:55:00,73.3,50.3,30.11,West,271,6.5,8.1,44,0.00,,SKC,0.00,VWS V14.00,2013-09-19 18:55:00,
2013-09-19 15:00:00,73.0,49.1,30.11,WNW,285,4.4,8.0,43,0.00,,SKC,0.00,VWS V14.00,2013-09-19 19:00:00,
2013-09-19 15:05:00,73.2,50.7,30.11,WNW,302,2.9,8.0,45,0.00,,SKC,0.00,VWS V14.00,2013-09-19 19:05:00,
2013-09-19 15:10:00,73.7,51.9,30.11,WSW,238,1.9,8.0,46,0.00,,SKC,0.00,VWS V14.00,2013-09-19 19:10:00,
2013-09-19 15:15:00,74.1,51.6,30.11,South,180,6.1,8.0,45,0.00,,SKC,0.00,VWS V14.00,2013-09-19 19:15:00,
2013-09-19 15:20:00,74.1,51.2,30.10,SSW,210,6.5,8.0,45,0.00,,SKC,0.00,VWS V14.00,2013-09-19 19:20:00,
2013-09-19 15:25:00,74.4,53.1,30.10,WSW,246,1.7,8.0,47,0.00,,SKC,0.00,VWS V14.00,2013-09-19 19:25:00,
2013-09-19 15:30:00,74.4,51.3,30.10,SW,232,2.9,3.6,44,0.00,,SKC,0.00,VWS V14.00,2013-09-19 19:30:00,
2013-09-19 15:35:00,74.3,51.7,30.10,West,271,3.4,5.8,45,0.00,,SKC,0.00,VWS V14.00,2013-09-19 19:35:00,
2013-09-19 15:40:00,74.2,51.5,30.10,West,264,4.2,7.2,45,0.00,,SKC,0.00,VWS V14.00,2013-09-19 19:40:00,
2013-09-19 15:45:00,74.0,51.3,30.10,West,269,4.0,7.5,45,0.00,,SKC,0.00,VWS V14.00,2013-09-19 19:45:00,
2013-09-19 15:50:00,73.8,52.3,30.10,West,276,4.4,7.5,47,0.00,,SKC,0.00,VWS V14.00,2013-09-19 19:50:00,
2013-09-19 15:55:00,73.9,52.9,30.10,NW,314,3.1,7.5,48,0.00,,SKC,0.00,VWS V14.00,2013-09-19 19:55:00,
2013-09-19 16:00:00,73.9,52.6,30.10,WNW,300,4.5,5.0,47,0.00,,SKC,0.00,VWS V14.00,2013-09-19 20:00:00,
2013-09-19 16:05:00,73.9,53.2,30.10,WNW,287,3.0,7.3,48,0.00,,SKC,0.00,VWS V14.00,2013-09-19 20:05:00,
2013-09-19 16:10:00,73.9,54.1,30.09,NW,308,4.2,7.7,50,0.00,,SKC,0.00,VWS V14.00,2013-09-19 20:10:00,
2013-09-19 16:15:00,73.8,53.0,30.09,West,266,2.7,7.7,48,0.00,,SKC,0.00,VWS V14.00,2013-09-19 20:15:00,
2013-09-19 16:21:00,73.8,53.6,30.09,WNW,294,4.7,7.7,49,0.00,,SKC,0.00,VWS V14.00,2013-09-19 20:21:00,
2013-09-19 16:26:00,73.7,54.1,30.09,WNW,300,3.1,7.7,50,0.00,,SKC,0.00,VWS V14.00,2013-09-19 20:26:00,
2013-09-19 16:30:00,74.4,51.1,30.10,West,266,2.7,8.0,44,0.00,,SCT,0.00,VWS V14.00,2013-09-19 20:30:00,
2013-09-19 16:31:00,73.7,53.7,30.09,West,270,2.1,3.7,50,0.00,,SKC,0.00,VWS V14.00,2013-09-19 20:31:00,
2013-09-19 16:36:00,73.9,53.7,30.09,WNW,285,2.1,4.8,49,0.00,,SKC,0.00,VWS V14.00,2013-09-19 20:36:00,
2013-09-19 16:41:00,74.0,54.6,30.09,West,266,1.8,4.8,51,0.00,,SKC,0.00,VWS V14.00,2013-09-19 20:41:00,
2013-09-19 16:46:00,73.9,53.4,30.09,West,263,3.5,7.5,49,0.00,,SKC,0.00,VWS V14.00,2013-09-19 20:46:00,
2013-09-19 16:51:00,73.8,54.3,30.09,WSW,250,2.5,7.5,51,0.00,,SKC,0.00,VWS V14.00,2013-09-19 20:51:00,
2013-09-19 16:56:00,73.7,54.4,30.09,SW,233,1.9,7.5,51,0.00,,SKC,0.00,VWS V14.00,2013-09-19 20:56:00,
2013-09-19 17:00:00,73.9,52.8,30.10,WSW,250,3.4,7.5,48,0.00,,SCT,0.00,VWS V14.00,2013-09-19 21:00:00,
2013-09-19 17:01:00,73.6,53.8,30.08,West,269,3.5,5.3,50,0.00,,SKC,0.00,VWS V14.00,2013-09-19 21:01:00,
2013-09-19 17:06:00,73.7,54.7,30.08,WNW,287,2.0,5.3,51,0.00,,SKC,0.00,VWS V14.00,2013-09-19 21:06:00,
2013-09-19 17:11:00,73.8,55.0,30.08,West,271,2.1,5.3,52,0.00,,SKC,0.00,VWS V14.00,2013-09-19 21:11:00,
2013-09-19 17:16:00,73.8,54.7,30.08,West,277,3.2,5.3,51,0.00,,SKC,0.00,VWS V14.00,2013-09-19 21:16:00,
2013-09-19 17:21:00,73.7,54.6,30.09,WSW,253,1.2,5.3,51,0.00,,SKC,0.00,VWS V14.00,2013-09-19 21:21:00,
2013-09-19 17:26:00,73.6,54.5,30.09,West,271,3.4,5.3,51,0.00,,SKC,0.00,VWS V14.00,2013-09-19 21:26:00,
2013-09-19 17:30:00,73.8,52.8,30.09,WNW,283,3.5,7.7,48,0.00,,SCT,0.00,VWS V14.00,2013-09-19 21:30:00,
2013-09-19 17:31:00,73.5,55.1,30.09,WSW,246,2.4,4.8,52,0.00,,SKC,0.00,VWS V14.00,2013-09-19 21:31:00,
2013-09-19 17:36:00,73.5,55.1,30.09,WSW,256,1.0,4.8,53,0.00,,SKC,0.00,VWS V14.00,2013-09-19 21:36:00,
2013-09-19 17:41:00,73.6,55.7,30.08,WNW,288,0.0,4.8,54,0.00,,SKC,0.00,VWS V14.00,2013-09-19 21:41:00,
2013-09-19 17:46:00,73.5,55.5,30.08,WSW,253,2.2,4.8,53,0.00,,SKC,0.00,VWS V14.00,2013-09-19 21:46:00,
2013-09-19 17:51:00,73.5,55.1,30.09,West,263,3.0,4.8,53,0.00,,SKC,0.00,VWS V14.00,2013-09-19 21:51:00,
2013-09-19 17:56:00,73.3,55.5,30.09,West,263,1.2,4.8,54,0.00,,SKC,0.00,VWS V14.00,2013-09-19 21:56:00,
2013-09-19 18:00:00,73.6,54.3,30.08,WNW,285,2.4,7.5,51,0.00,,SCT,0.00,VWS V14.00,2013-09-19 22:00:00,
2013-09-19 18:01:00,73.1,55.4,30.09,WNW,298,0.0,2.4,54,0.00,,SKC,0.00,VWS V14.00,2013-09-19 22:01:00,
2013-09-19 18:06:00,72.9,55.2,30.09,WNW,292,2.1,4.7,54,0.00,,SKC,0.00,VWS V14.00,2013-09-19 22:06:00,
2013-09-19 18:11:00,72.8,54.7,30.09,WNW,301,0.4,4.7,53,0.00,,SKC,0.00,VWS V14.00,2013-09-19 22:11:00,
2013-09-19 18:16:00,72.7,54.5,30.09,West,267,0.0,4.7,53,0.00,,SKC,0.00,VWS V14.00,2013-09-19 22:16:00,
2013-09-19 18:21:00,72.5,54.2,30.09,SSW,210,0.0,4.7,52,0.00,,SKC,0.00,VWS V14.00,2013-09-19 22:21:00,
2013-09-19 18:26:00,72.2,54.3,30.09,SSW,210,0.0,4.7,53,0.00,,SKC,0.00,VWS V14.00,2013-09-19 22:26:00,
2013-09-19 18:30:00,73.7,56.0,30.08,WNW,288,3.7,5.3,54,0.00,,SCT,0.00,VWS V14.00,2013-09-19 22:30:00,
2013-09-19 18:31:00,72.2,54.2,30.09,SSW,210,0.0,0.0,53,0.00,,SKC,0.00,VWS V14.00,2013-09-19 22:31:00,
2013-09-19 18:36:00,71.7,54.6,30.09,SSW,210,0.0,0.0,55,0.00,,SKC,0.00,VWS V14.00,2013-09-19 22:36:00,
2013-09-19 18:41:00,71.2,54.5,30.09,SSW,210,0.0,0.0,56,0.00,,SKC,0.00,VWS V14.00,2013-09-19 22:41:00,
2013-09-19 18:46:00,70.8,55.1,30.09,SSW,210,0.0,0.0,58,0.00,,SKC,0.00,VWS V14.00,2013-09-19 22:46:00,
2013-09-19 18:51:00,70.3,55.4,30.09,SSW,210,0.0,0.0,59,0.00,,SKC,0.00,VWS V14.00,2013-09-19 22:51:00,
2013-09-19 18:56:00,69.4,55.8,30.09,SSW,210,0.0,0.0,62,0.00,,SKC,0.00,VWS V14.00,2013-09-19 22:56:00,
2013-09-19 19:00:00,73.2,55.5,30.09,West,274,1.4,4.8,54,0.00,,SCT,0.00,VWS V14.00,2013-09-19 23:00:00,
2013-09-19 19:01:00,68.6,55.2,30.09,SSW,210,0.0,0.0,62,0.00,,SKC,0.00,VWS V14.00,2013-09-19 23:01:00,
2013-09-19 19:06:00,68.1,55.6,30.10,SSW,210,0.0,0.0,64,0.00,,SKC,0.00,VWS V14.00,2013-09-19 23:06:00,
2013-09-19 19:11:00,67.6,55.8,30.10,SSW,210,0.0,0.0,66,0.00,,SKC,0.00,VWS V14.00,2013-09-19 23:11:00,
2013-09-19 19:16:00,66.8,55.6,30.10,SSW,210,0.0,0.0,67,0.00,,SKC,0.00,VWS V14.00,2013-09-19 23:16:00,
2013-09-19 19:21:00,65.9,55.6,30.10,SSW,210,0.0,0.0,69,0.00,,SKC,0.00,VWS V14.00,2013-09-19 23:21:00,
2013-09-19 19:26:00,65.2,55.8,30.10,SSW,210,0.0,0.0,72,0.00,,SKC,0.00,VWS V14.00,2013-09-19 23:26:00,
2013-09-19 19:30:00,72.2,54.0,30.09,SSW,210,0.0,4.7,53,0.00,,SCT,0.00,VWS V14.00,2013-09-19 23:30:00,
2013-09-19 19:31:00,64.5,55.6,30.10,SSW,210,0.0,0.0,73,0.00,,SKC,0.00,VWS V14.00,2013-09-19 23:31:00,
2013-09-19 19:36:00,64.0,55.5,30.10,SSW,210,0.0,0.0,74,0.00,,SKC,0.00,VWS V14.00,2013-09-19 23:36:00,
2013-09-19 19:41:00,63.4,55.3,30.10,SSW,210,0.0,0.0,75,0.00,,SKC,0.00,VWS V14.00,2013-09-19 23:41:00,
2013-09-19 19:46:00,62.9,55.3,30.10,SSW,210,0.0,0.0,76,0.00,,SKC,0.00,VWS V14.00,2013-09-19 23:46:00,
2013-09-19 19:51:00,62.7,55.5,30.10,SSW,210,0.0,0.0,77,0.00,,SKC,0.00,VWS V14.00,2013-09-19 23:51:00,
2013-09-19 19:56:00,62.2,55.3,30.10,SSW,210,0.0,0.0,78,0.00,,SKC,0.00,VWS V14.00,2013-09-19 23:56:00,
2013-09-19 20:00:00,69.0,55.5,30.09,SSW,210,0.0,0.0,62,0.00,,SCT,0.00,VWS V14.00,2013-09-20 00:00:00,
2013-09-19 20:01:00,62.0,55.3,30.10,SSW,210,0.0,0.0,79,0.00,,SKC,0.00,VWS V14.00,2013-09-20 00:01:00,
2013-09-19 20:06:00,61.6,55.2,30.10,SSW,210,0.0,0.0,80,0.00,,SKC,0.00,VWS V14.00,2013-09-20 00:06:00,
2013-09-19 20:11:00,61.5,55.3,30.11,SSW,210,0.0,0.0,80,0.00,,SKC,0.00,VWS V14.00,2013-09-20 00:11:00,
2013-09-19 20:16:00,61.1,55.1,30.11,SSW,210,0.0,0.0,81,0.00,,SKC,0.00,VWS V14.00,2013-09-20 00:16:00,
2013-09-19 20:21:00,60.8,55.1,30.11,SSW,210,0.0,0.0,81,0.00,,SKC,0.00,VWS V14.00,2013-09-20 00:21:00,
2013-09-19 20:26:00,60.5,55.0,30.11,SSW,210,0.0,0.0,82,0.00,,SKC,0.00,VWS V14.00,2013-09-20 00:26:00,
2013-09-19 20:30:00,64.6,55.5,30.10,SSW,210,0.0,0.0,72,0.00,,SCT,0.00,VWS V14.00,2013-09-20 00:30:00,
2013-09-19 20:31:00,60.1,54.9,30.10,SSW,210,0.0,0.0,83,0.00,,SKC,0.00,VWS V14.00,2013-09-20 00:31:00,
2013-09-19 20:36:00,59.8,54.8,30.10,SSW,210,0.0,0.0,83,0.00,,SKC,0.00,VWS V14.00,2013-09-20 00:36:00,
2013-09-19 20:41:00,59.6,54.7,30.11,SSW,210,0.0,0.0,84,0.00,,SKC,0.00,VWS V14.00,2013-09-20 00:41:00,
2013-09-19 20:46:00,59.4,54.7,30.11,SSW,210,0.0,0.0,84,0.00,,SKC,0.00,VWS V14.00,2013-09-20 00:46:00,
2013-09-19 20:51:00,59.2,54.5,30.11,SSW,210,0.0,0.0,84,0.00,,SKC,0.00,VWS V14.00,2013-09-20 00:51:00,
2013-09-19 20:56:00,59.0,54.4,30.11,SSW,210,0.0,0.0,85,0.00,,SKC,0.00,VWS V14.00,2013-09-20 00:56:00,
2013-09-19 21:00:00,62.0,55.2,30.10,SSW,210,0.0,0.0,78,0.00,,SCT,0.00,VWS V14.00,2013-09-20 01:00:00,
2013-09-19 21:01:00,58.9,54.4,30.11,SSW,210,0.0,0.0,85,0.00,,SKC,0.00,VWS V14.00,2013-09-20 01:01:00,
2013-09-19 21:06:00,58.8,54.4,30.11,SSW,210,0.0,0.0,85,0.00,,SKC,0.00,VWS V14.00,2013-09-20 01:06:00,
2013-09-19 21:11:00,58.5,54.2,30.11,SSW,210,0.0,0.0,86,0.00,,SKC,0.00,VWS V14.00,2013-09-20 01:11:00,
2013-09-19 21:16:00,58.4,54.1,30.11,SSW,210,0.0,0.0,86,0.00,,SKC,0.00,VWS V14.00,2013-09-20 01:16:00,
2013-09-19 21:21:00,58.2,54.3,30.11,SSW,210,0.0,0.0,87,0.00,,SKC,0.00,VWS V14.00,2013-09-20 01:21:00,
2013-09-19 21:26:00,58.3,54.6,30.11,SSW,210,0.0,0.0,88,0.00,,SKC,0.00,VWS V14.00,2013-09-20 01:26:00,
2013-09-19 21:30:00,60.4,55.1,30.10,SSW,210,0.0,0.0,83,0.00,,SCT,0.00,VWS V14.00,2013-09-20 01:30:00,
2013-09-19 21:31:00,58.4,54.7,30.11,SSW,210,0.0,0.0,87,0.00,,SKC,0.00,VWS V14.00,2013-09-20 01:31:00,
2013-09-19 21:36:00,58.2,54.6,30.11,SSW,210,0.0,0.0,88,0.00,,SKC,0.00,VWS V14.00,2013-09-20 01:36:00,
2013-09-19 21:41:00,58.1,54.6,30.12,SSW,210,0.0,0.0,88,0.00,,SKC,0.00,VWS V14.00,2013-09-20 01:41:00,
2013-09-19 21:46:00,58.0,54.8,30.12,SSW,210,0.0,0.0,89,0.00,,SKC,0.00,VWS V14.00,2013-09-20 01:46:00,
2013-09-19 21:51:00,57.7,54.4,30.12,SSW,210,0.0,0.0,89,0.00,,SKC,0.00,VWS V14.00,2013-09-20 01:51:00,
2013-09-19 21:56:00,57.6,54.1,30.12,SE,135,0.7,2.2,88,0.00,,SKC,0.00,VWS V14.00,2013-09-20 01:56:00,
2013-09-19 22:00:00,59.0,54.5,30.11,SSW,210,0.0,0.0,85,0.00,,SCT,0.00,VWS V14.00,2013-09-20 02:00:00,
2013-09-19 22:01:00,57.0,53.6,30.11,SE,135,0.0,0.0,88,0.00,,SKC,0.00,VWS V14.00,2013-09-20 02:01:00,
2013-09-19 22:06:00,56.8,53.5,30.11,SE,135,0.0,0.0,89,0.00,,SKC,0.00,VWS V14.00,2013-09-20 02:06:00,
2013-09-19 22:11:00,56.9,53.7,30.11,SE,135,0.0,0.0,89,0.00,,SKC,0.00,VWS V14.00,2013-09-20 02:11:00,
2013-09-19 22:16:00,56.8,53.6,30.11,SE,135,0.0,0.0,89,0.00,,SKC,0.00,VWS V14.00,2013-09-20 02:16:00,
2013-09-19 22:21:00,56.8,53.7,30.11,SE,135,0.0,0.0,89,0.00,,SKC,0.00,VWS V14.00,2013-09-20 02:21:00,
2013-09-19 22:26:00,56.9,53.9,30.11,SE,135,0.0,0.0,90,0.00,,SKC,0.00,VWS V14.00,2013-09-20 02:26:00,
2013-09-19 22:30:00,58.5,54.8,30.11,SSW,210,0.0,0.0,88,0.00,,SCT,0.00,VWS V14.00,2013-09-20 02:30:00,
2013-09-19 22:31:00,57.0,54.2,30.11,NE,39,0.0,0.0,90,0.00,,SKC,0.00,VWS V14.00,2013-09-20 02:31:00,
2013-09-19 22:37:00,57.2,54.4,30.11,NE,39,0.0,0.0,90,0.00,,SKC,0.00,VWS V14.00,2013-09-20 02:37:00,
2013-09-19 22:42:00,57.3,54.4,30.11,NE,39,0.0,0.0,90,0.00,,SKC,0.00,VWS V14.00,2013-09-20 02:42:00,
2013-09-19 22:47:00,56.9,53.8,30.10,NE,39,0.0,0.0,89,0.00,,SKC,0.00,VWS V14.00,2013-09-20 02:47:00,
2013-09-19 22:52:00,56.8,53.9,30.10,NE,39,0.0,0.0,90,0.00,,SKC,0.00,VWS V14.00,2013-09-20 02:52:00,
2013-09-19 22:57:00,56.8,53.8,30.10,NE,39,0.0,0.0,90,0.00,,SKC,0.00,VWS V14.00,2013-09-20 02:57:00,
2013-09-19 23:00:00,57.2,53.8,30.12,SE,135,0.0,2.2,88,0.00,,SCT,0.00,VWS V14.00,2013-09-20 03:00:00,
2013-09-19 23:02:00,56.8,53.8,30.10,NE,39,0.0,0.0,90,0.00,,SKC,0.00,VWS V14.00,2013-09-20 03:02:00,
2013-09-19 23:07:00,56.7,53.7,30.10,NE,39,0.0,0.0,90,0.00,,SKC,0.00,VWS V14.00,2013-09-20 03:07:00,
2013-09-19 23:12:00,56.6,53.5,30.10,NE,39,0.0,0.0,89,0.00,,SKC,0.00,VWS V14.00,2013-09-20 03:12:00,
2013-09-19 23:17:00,56.8,53.7,30.10,NE,39,0.0,0.0,89,0.00,,SKC,0.00,VWS V14.00,2013-09-20 03:17:00,
2013-09-19 23:22:00,56.7,53.6,30.10,NE,39,0.0,0.0,89,0.00,,SKC,0.00,VWS V14.00,2013-09-20 03:22:00,
2013-09-19 23:27:00,56.8,53.6,30.09,NE,39,0.0,0.0,89,0.00,,SKC,0.00,VWS V14.00,2013-09-20 03:27:00,
2013-09-19 23:30:00,56.9,54.0,30.11,NE,39,0.0,0.9,90,0.00,,SCT,0.00,VWS V14.00,2013-09-20 03:30:00,
2013-09-19 23:32:00,56.8,53.5,30.09,NE,39,0.0,0.0,89,0.00,,SKC,0.00,VWS V14.00,2013-09-20 03:32:00,
2013-09-19 23:37:00,56.7,53.3,30.09,NE,39,0.0,0.0,88,0.00,,SKC,0.00,VWS V14.00,2013-09-20 03:37:00,
2013-09-19 23:42:00,56.9,53.5,30.09,NE,39,0.0,0.0,88,0.00,,SKC,0.00,VWS V14.00,2013-09-20 03:42:00,
2013-09-19 23:47:00,56.9,53.3,30.09,NE,39,0.0,0.0,88,0.00,,SKC,0.00,VWS V14.00,2013-09-20 03:47:00,
2013-09-19 23:52:00,57.0,53.3,30.09,NE,39,0.0,0.0,87,0.00,,SKC,0.00,VWS V14.00,2013-09-20 03:52:00,
2013-09-19 23:57:00,57.0,53.2,30.09,NE,39,0.0,0.0,87,0.00,,SKC,0.00,VWS V14.00,2013-09-20 03:57:00,